Time;durP1;ratioP1;P1;durP2;ratioP2;P2;SDS_P1;SDS_P2;PMS_P1;PMS_P2;Temp;Humidity;BMP_temperature;BMP_pressure;BME280_temperature;BME280_humidity;BME280_pressure;Samples;Min_cycle;Max_cycle;Signal;HPM_P1;HPM_P2
2021/11/07 00:04:40;;;;;;;;;;;;;;;8.77;74.72;100654.86;1646553;85;20167;-78
2021/11/07 00:09:41;;;;;;;;;;;;;;;8.70;74.99;100643.17;1647734;86;20139;-77
2021/11/07 00:12:13;;;;;;;;;;;;;;;8.61;75.36;100636.42;1642140;85;20758;-77
2021/11/07 00:14:30;;;;;;;;;;;;;;;8.52;75.43;100633.26;1642868;85;20528;-79
2021/11/07 00:16:56;;;;;;;;;;;;;;;8.49;75.75;100636.16;1649443;85;20276;-78
2021/11/07 00:19:32;;;;;;;;;;;;;;;8.63;75.35;100627.90;1646933;85;20166;-77
2021/11/07 00:22:02;;;;;;;;;;;;;;;8.50;75.73;100630.39;1644800;86;20177;-78
2021/11/07 00:24:32;;;;;;;;;;;;;;;8.45;75.87;100624.20;1648921;85;20397;-77
2021/11/07 00:27:01;;;;;;;;;;;;;;;8.42;75.85;100627.06;1646401;85;20143;-78
2021/11/07 00:29:23;;;;;;;;;;;;;;;8.40;76.18;100622.42;1642673;85;20142;-78
2021/11/07 00:32:05;;;;;;;;;;;;;;;8.24;76.88;100613.69;1644586;85;20191;-77
2021/11/07 00:36:56;;;;;;;;;;;;;;;8.27;76.92;100610.30;1648779;86;20137;-78
2021/11/07 00:39:44;;;;;;;;;;;;;;;8.21;77.17;100606.87;1640359;85;20701;-77
2021/11/07 00:42:17;;;;;;;;;;;;;;;8.31;77.04;100602.16;1635530;85;20125;-78
2021/11/07 00:47:59;;;;;;;;;;;;;;;8.12;77.38;100607.66;1649032;85;20181;-76
2021/11/07 00:49:54;;;;;;;;;;;;;;;8.26;76.76;100613.92;1640980;85;20248;-77
2021/11/07 00:52:36;;;;;;;;;;;;;;;8.22;76.88;100601.98;1647717;85;20223;-76
2021/11/07 00:57:36;;;;;;;;;;;;;;;8.23;76.71;100602.34;1645798;85;20155;-77
2021/11/07 01:02:22;;;;;;;;;;;;;;;7.99;77.42;100597.33;1649016;86;20458;-76
2021/11/07 01:04:48;;;;;;;;;;;;;;;8.04;77.24;100593.83;1643000;85;20164;-76
2021/11/07 01:07:15;;;;;;;;;;;;;;;8.06;77.27;100589.75;1648523;86;20173;-76
2021/11/07 01:09:41;;;;;;;;;;;;;;;7.87;77.80;100587.34;1644358;86;20210;-77
2021/11/07 01:12:07;;;;;;;;;;;;;;;7.82;78.12;100578.20;1640973;86;20137;-77
2021/11/07 01:14:33;;;;;;;;;;;;;;;7.85;77.92;100574.81;1647960;86;21199;-77
2021/11/07 01:16:59;;;;;;;;;;;;;;;7.79;78.30;100572.70;1647239;85;20142;-77
2021/11/07 01:19:25;;;;;;;;;;;;;;;7.77;78.34;100575.09;1647377;85;20149;-77
2021/11/07 01:21:50;;;;;;;;;;;;;;;7.80;78.20;100565.17;1649092;85;20137;-77
2021/11/07 01:24:28;;;;;;;;;;;;;;;7.60;78.74;100558.09;1640115;86;20137;-76
2021/11/07 01:26:50;;;;;;;;;;;;;;;7.47;79.33;100555.64;1650593;85;20798;-77
2021/11/07 01:29:16;;;;;;;;;;;;;;;7.36;79.95;100543.38;1651493;85;20895;-77
2021/11/07 01:31:41;;;;;;;;;;;;;;;7.42;79.66;100536.31;1645334;85;20289;-77
2021/11/07 01:34:12;;;;;;;;;;;;;;;7.39;79.74;100532.63;1650607;85;20547;-77
2021/11/07 01:36:43;;;;;;;;;;;;;;;7.45;79.63;100525.55;1645488;86;20187;-77
2021/11/07 01:39:09;;;;;;;;;;;;;;;7.44;79.65;100525.67;1641320;86;20343;-76
2021/11/07 01:41:39;;;;;;;;;;;;;;;7.43;79.58;100525.34;1647331;85;20518;-76
2021/11/07 01:43:59;;;;;;;;;;;;;;;7.46;79.55;100517.21;1644990;86;20164;-77
2021/11/07 01:46:29;;;;;;;;;;;;;;;7.47;79.37;100521.02;1650590;85;20620;-78
2021/11/07 01:49:03;;;;;;;;;;;;;;;7.46;79.46;100518.03;1649316;86;20160;-77
2021/11/07 01:51:25;;;;;;;;;;;;;;;7.43;79.42;100513.03;1640570;86;20223;-77
2021/11/07 01:53:54;;;;;;;;;;;;;;;7.39;79.50;100508.98;1646865;86;20191;-77
2021/11/07 01:56:18;;;;;;;;;;;;;;;7.49;79.28;100503.33;1645550;85;20955;-77
2021/11/07 01:58:45;;;;;;;;;;;;;;;7.50;79.06;100502.38;1633631;86;20154;-79
2021/11/07 02:01:11;;;;;;;;;;;;;;;7.37;79.39;100501.71;1637384;86;20202;-79
2021/11/07 02:03:36;;;;;;;;;;;;;;;7.30;79.43;100500.54;1632990;86;21212;-79
2021/11/07 02:06:02;;;;;;;;;;;;;;;7.35;79.33;100487.39;1636142;86;20264;-79
2021/11/07 02:08:28;;;;;;;;;;;;;;;7.32;79.34;100488.13;1635389;86;20303;-79
2021/11/07 02:10:54;;;;;;;;;;;;;;;7.40;79.08;100490.95;1634352;86;20296;-79
2021/11/07 02:13:20;;;;;;;;;;;;;;;7.31;79.15;100485.97;1632250;86;20288;-78
2021/11/07 02:15:46;;;;;;;;;;;;;;;7.36;79.13;100482.50;1634423;86;21109;-78
2021/11/07 02:18:12;;;;;;;;;;;;;;;7.35;78.93;100476.05;1633542;86;20281;-77
2021/11/07 02:20:39;;;;;;;;;;;;;;;7.25;79.06;100471.20;1630027;86;20771;-77
2021/11/07 02:23:07;;;;;;;;;;;;;;;7.24;79.30;100464.27;1636155;86;20225;-77
2021/11/07 02:25:34;;;;;;;;;;;;;;;7.26;78.85;100465.00;1634125;86;20457;-78
2021/11/07 02:28:00;;;;;;;;;;;;;;;7.15;79.12;100462.77;1634210;86;21087;-77
2021/11/07 02:30:26;;;;;;;;;;;;;;;7.23;78.89;100448.18;1635271;86;20469;-77
2021/11/07 02:32:52;;;;;;;;;;;;;;;7.18;78.91;100446.75;1635208;86;20370;-77
2021/11/07 02:35:18;;;;;;;;;;;;;;;7.21;78.91;100443.05;1633269;86;21254;-77
2021/11/07 02:37:44;;;;;;;;;;;;;;;7.21;78.72;100440.88;1637362;86;20359;-77
2021/11/07 02:40:11;;;;;;;;;;;;;;;7.10;79.11;100438.69;1638600;86;21059;-78
2021/11/07 02:42:37;;;;;;;;;;;;;;;7.00;79.19;100432.52;1633079;85;20178;-77
2021/11/07 02:45:03;;;;;;;;;;;;;;;6.89;79.40;100431.25;1630568;86;20401;-77
2021/11/07 02:47:29;;;;;;;;;;;;;;;6.89;79.72;100437.81;1605250;87;20200;-77
2021/11/07 02:49:55;;;;;;;;;;;;;;;6.92;79.28;100431.00;1634005;86;20451;-77
2021/11/07 02:52:20;;;;;;;;;;;;;;;6.96;79.07;100427.14;1634502;86;21160;-77
2021/11/07 02:54:46;;;;;;;;;;;;;;;6.99;78.85;100420.33;1636535;85;20790;-77
2021/11/07 02:57:13;;;;;;;;;;;;;;;6.89;78.67;100418.12;1631185;86;20279;-78
2021/11/07 02:59:41;;;;;;;;;;;;;;;6.99;78.86;100417.70;1636478;86;20153;-77
2021/11/07 03:02:07;;;;;;;;;;;;;;;7.07;78.30;100416.61;1637659;86;20237;-77
2021/11/07 03:04:33;;;;;;;;;;;;;;;7.03;78.17;100420.94;1637376;86;21163;-77
2021/11/07 03:06:59;;;;;;;;;;;;;;;6.94;78.37;100415.95;1636794;86;20145;-77
2021/11/07 03:09:27;;;;;;;;;;;;;;;6.77;78.40;100411.58;1638576;86;20237;-77
2021/11/07 03:11:54;;;;;;;;;;;;;;;6.81;78.38;100414.33;1635394;86;20182;-78
2021/11/07 03:14:37;;;;;;;;;;;;;;;6.90;78.04;100404.02;1638539;86;20189;-78
2021/11/07 03:17:03;;;;;;;;;;;;;;;6.79;78.29;100396.56;1639136;85;22013;-77
2021/11/07 03:19:29;;;;;;;;;;;;;;;6.71;78.29;100392.44;1636258;86;21063;-78
2021/11/07 03:21:56;;;;;;;;;;;;;;;6.64;78.33;100396.50;1639027;86;20468;-78
2021/11/07 03:24:22;;;;;;;;;;;;;;;6.76;78.21;100400.75;1642591;86;20214;-77
2021/11/07 03:26:48;;;;;;;;;;;;;;;6.73;78.29;100391.81;1640111;86;20233;-77
2021/11/07 03:29:14;;;;;;;;;;;;;;;6.72;77.97;100389.31;1636951;86;21206;-77
2021/11/07 03:34:17;;;;;;;;;;;;;;;6.57;78.51;100373.02;1638300;86;20128;-78
2021/11/07 03:36:50;;;;;;;;;;;;;;;6.67;78.19;100370.50;1637174;86;20198;-77
2021/11/07 03:39:15;;;;;;;;;;;;;;;6.65;78.16;100366.69;1633880;86;20430;-77
2021/11/07 03:41:40;;;;;;;;;;;;;;;6.64;78.14;100362.39;1637269;85;20573;-77
2021/11/07 03:44:06;;;;;;;;;;;;;;;6.64;78.22;100355.83;1636627;85;20133;-77
2021/11/07 03:46:33;;;;;;;;;;;;;;;6.70;77.98;100359.75;1638080;86;20236;-77
2021/11/07 03:48:59;;;;;;;;;;;;;;;6.66;77.86;100347.34;1634671;86;20597;-77
2021/11/07 03:51:27;;;;;;;;;;;;;;;6.70;77.83;100341.38;1637610;86;20249;-77
2021/11/07 03:53:52;;;;;;;;;;;;;;;6.82;77.40;100336.41;1634490;86;20153;-77
2021/11/07 03:56:19;;;;;;;;;;;;;;;6.70;77.37;100334.33;1638573;86;20253;-77
2021/11/07 03:58:45;;;;;;;;;;;;;;;6.73;77.57;100334.08;1640110;85;20133;-77
2021/11/07 04:01:11;;;;;;;;;;;;;;;6.79;77.31;100336.20;1642454;86;20209;-77
2021/11/07 04:03:36;;;;;;;;;;;;;;;6.81;77.12;100334.27;1634568;86;20168;-77
2021/11/07 04:06:02;;;;;;;;;;;;;;;6.70;77.25;100331.70;1640218;86;21116;-77
2021/11/07 04:08:28;;;;;;;;;;;;;;;6.66;77.45;100321.10;1645405;85;20212;-77
2021/11/07 04:10:54;;;;;;;;;;;;;;;6.65;77.65;100317.66;1638729;86;20180;-78
2021/11/07 04:13:20;;;;;;;;;;;;;;;6.50;78.01;100320.71;1644791;86;20254;-77
2021/11/07 04:15:45;;;;;;;;;;;;;;;6.55;78.05;100318.53;1637308;86;20333;-78
2021/11/07 04:18:11;;;;;;;;;;;;;;;6.37;78.39;100312.98;1639441;86;22191;-77
2021/11/07 04:20:37;;;;;;;;;;;;;;;6.24;79.02;100317.91;1639443;86;20195;-78
2021/11/07 04:23:03;;;;;;;;;;;;;;;6.33;78.86;100310.28;1639934;86;20204;-77
2021/11/07 04:25:29;;;;;;;;;;;;;;;6.07;79.78;100306.16;1637504;86;20214;-77
2021/11/07 04:27:54;;;;;;;;;;;;;;;6.11;79.60;100291.86;1641625;86;21279;-77
2021/11/07 04:30:20;;;;;;;;;;;;;;;6.07;80.00;100286.50;1638196;85;21044;-77
2021/11/07 04:32:46;;;;;;;;;;;;;;;5.91;80.73;100278.19;1640255;86;20486;-77
2021/11/07 04:35:11;;;;;;;;;;;;;;;5.83;80.91;100270.94;1635678;86;20235;-77
2021/11/07 04:37:39;;;;;;;;;;;;;;;5.82;81.37;100268.44;1635361;86;20856;-77
2021/11/07 04:40:06;;;;;;;;;;;;;;;5.74;81.61;100271.67;1622828;87;20196;-77
2021/11/07 04:42:31;;;;;;;;;;;;;;;5.74;81.80;100271.67;1610855;87;21099;-77
2021/11/07 04:44:57;;;;;;;;;;;;;;;5.73;82.11;100276.09;1611928;87;20673;-77
2021/11/07 04:47:23;;;;;;;;;;;;;;;5.82;81.65;100257.95;1602001;88;20134;-77
2021/11/07 04:49:51;;;;;;;;;;;;;;;5.60;82.23;100271.45;1594529;88;20551;-77
2021/11/07 04:52:16;;;;;;;;;;;;;;;5.68;82.37;100272.98;1607150;86;20160;-77
2021/11/07 04:54:41;;;;;;;;;;;;;;;5.71;82.20;100270.12;1622208;87;21099;-77
2021/11/07 04:57:07;;;;;;;;;;;;;;;5.78;81.91;100268.32;1612659;87;20443;-77
2021/11/07 04:59:32;;;;;;;;;;;;;;;5.75;81.95;100256.31;1602373;87;20193;-77
2021/11/07 05:01:58;;;;;;;;;;;;;;;5.86;81.60;100259.39;1605487;87;20148;-77
2021/11/07 05:04:24;;;;;;;;;;;;;;;5.84;81.63;100258.66;1603246;88;20587;-76
2021/11/07 05:06:51;;;;;;;;;;;;;;;5.84;81.79;100259.97;1604501;88;21333;-77
2021/11/07 05:09:18;;;;;;;;;;;;;;;5.91;81.46;100248.05;1600011;88;20482;-77
2021/11/07 05:11:44;;;;;;;;;;;;;;;5.94;81.51;100250.42;1603918;88;20194;-76
2021/11/07 05:14:09;;;;;;;;;;;;;;;5.93;81.43;100241.73;1597686;88;21365;-77
2021/11/07 05:16:35;;;;;;;;;;;;;;;5.98;81.33;100240.09;1602869;88;20466;-78
2021/11/07 05:19:02;;;;;;;;;;;;;;;6.06;81.04;100231.57;1601442;88;21148;-77
2021/11/07 05:21:28;;;;;;;;;;;;;;;6.12;80.81;100229.76;1603004;88;20185;-77
2021/11/07 05:23:54;;;;;;;;;;;;;;;5.93;80.88;100226.47;1604893;88;20135;-76
2021/11/07 05:26:19;;;;;;;;;;;;;;;5.92;81.49;100220.41;1605711;88;20164;-77
2021/11/07 05:28:45;;;;;;;;;;;;;;;5.99;81.07;100218.14;1605560;88;20471;-76
2021/11/07 05:31:10;;;;;;;;;;;;;;;5.94;81.11;100207.17;1604227;88;21915;-77
2021/11/07 05:33:36;;;;;;;;;;;;;;;5.93;80.98;100216.84;1605564;88;20325;-78
2021/11/07 05:36:02;;;;;;;;;;;;;;;5.92;81.23;100228.27;1602693;88;20156;-77
2021/11/07 05:38:28;;;;;;;;;;;;;;;5.93;81.23;100221.23;1603934;88;20188;-79
2021/11/07 05:40:53;;;;;;;;;;;;;;;5.92;81.21;100213.03;1599239;88;20252;-80
2021/11/07 05:43:22;;;;;;;;;;;;;;;5.92;81.16;100205.17;1604263;88;21018;-76
2021/11/07 05:45:48;;;;;;;;;;;;;;;5.73;81.82;100201.41;1603956;87;20146;-77
2021/11/07 05:48:13;;;;;;;;;;;;;;;5.67;82.21;100203.67;1608112;88;20103;-77
2021/11/07 05:50:40;;;;;;;;;;;;;;;5.57;82.67;100206.20;1603238;88;20166;-77
2021/11/07 05:53:06;;;;;;;;;;;;;;;5.48;83.06;100201.70;1601002;88;20148;-77
2021/11/07 05:55:32;;;;;;;;;;;;;;;5.44;83.24;100198.95;1605747;88;21942;-77
2021/11/07 05:57:59;;;;;;;;;;;;;;;5.48;83.50;100189.91;1603123;88;20340;-76
2021/11/07 06:00:25;;;;;;;;;;;;;;;5.55;83.23;100191.09;1615355;87;20379;-76
2021/11/07 06:02:51;;;;;;;;;;;;;;;5.65;82.85;100194.62;1607248;87;20290;-77
2021/11/07 06:05:16;;;;;;;;;;;;;;;5.58;82.75;100187.75;1612889;87;20166;-77
2021/11/07 06:07:42;;;;;;;;;;;;;;;5.51;83.42;100189.67;1611897;87;22343;-77
2021/11/07 06:10:08;;;;;;;;;;;;;;;5.64;83.11;100192.98;1610512;87;20146;-77
2021/11/07 06:12:33;;;;;;;;;;;;;;;5.60;83.15;100198.10;1615012;87;20173;-76
2021/11/07 06:14:59;;;;;;;;;;;;;;;5.68;82.82;100197.00;1614594;87;20140;-77
2021/11/07 06:17:24;;;;;;;;;;;;;;;5.79;82.40;100196.63;1614944;87;20515;-79
2021/11/07 06:19:50;;;;;;;;;;;;;;;5.73;82.51;100188.31;1614115;87;22410;-77
2021/11/07 06:22:16;;;;;;;;;;;;;;;5.65;82.48;100173.67;1610526;87;20193;-77
2021/11/07 06:24:42;;;;;;;;;;;;;;;5.75;82.28;100158.87;1612416;87;20142;-76
2021/11/07 06:27:08;;;;;;;;;;;;;;;5.69;82.76;100162.00;1613641;87;20207;-77
2021/11/07 06:29:33;;;;;;;;;;;;;;;5.64;82.67;100169.41;1614845;87;20195;-76
2021/11/07 06:31:59;;;;;;;;;;;;;;;5.64;82.93;100166.78;1615308;87;21102;-76
2021/11/07 06:34:25;;;;;;;;;;;;;;;5.66;83.20;100175.34;1612986;87;20387;-76
2021/11/07 06:36:51;;;;;;;;;;;;;;;5.92;82.74;100174.53;1610769;87;20146;-78
2021/11/07 06:39:17;;;;;;;;;;;;;;;5.80;82.31;100175.53;1614001;87;21047;-76
2021/11/07 06:41:44;;;;;;;;;;;;;;;5.69;82.71;100174.27;1612874;87;20199;-75
2021/11/07 06:44:11;;;;;;;;;;;;;;;5.87;82.27;100175.40;1609555;87;22198;-76
2021/11/07 06:46:37;;;;;;;;;;;;;;;5.85;82.30;100166.81;1608428;87;20458;-78
2021/11/07 06:49:04;;;;;;;;;;;;;;;5.78;82.54;100155.64;1616365;87;20198;-79
2021/11/07 06:51:30;;;;;;;;;;;;;;;5.80;82.46;100158.99;1614216;87;20186;-77
2021/11/07 06:53:55;;;;;;;;;;;;;;;5.70;82.80;100161.05;1614191;87;20225;-78
2021/11/07 06:56:21;;;;;;;;;;;;;;;5.87;82.80;100149.65;1612858;86;21164;-77
2021/11/07 06:58:47;;;;;;;;;;;;;;;5.87;82.54;100140.48;1606908;87;20247;-77
2021/11/07 07:01:12;;;;;;;;;;;;;;;6.05;82.32;100135.06;1601184;88;20465;-78
2021/11/07 07:03:38;;;;;;;;;;;;;;;6.06;82.11;100136.73;1600804;88;20124;-78
2021/11/07 07:06:04;;;;;;;;;;;;;;;6.03;81.71;100133.05;1602576;88;20153;-78
2021/11/07 07:08:40;;;;;;;;;;;;;;;6.13;81.47;100129.67;1602983;88;21151;-78
2021/11/07 07:11:02;;;;;;;;;;;;;;;6.13;81.56;100130.98;1599701;88;20237;-78
2021/11/07 07:13:33;;;;;;;;;;;;;;;6.13;81.17;100129.67;1585410;88;20225;-78
2021/11/07 07:18:52;;;;;;;;;;;;;;;6.22;80.83;100114.48;1600139;88;20183;-77
2021/11/07 07:24:06;;;;;;;;;;;;;;;6.58;79.98;100107.08;1599712;88;20891;-77
2021/11/07 07:28:54;;;;;;;;;;;;;;;6.60;79.30;100103.83;1605166;88;20203;-79
2021/11/07 07:36:21;;;;;;;;;;;;;;;7.08;78.10;100087.39;1602905;87;20208;-77
2021/11/07 07:38:47;;;;;;;;;;;;;;;7.16;77.53;100076.22;1602071;88;20216;-78
2021/11/07 07:41:12;;;;;;;;;;;;;;;7.15;77.09;100071.95;1603532;88;20156;-77
2021/11/07 07:43:40;;;;;;;;;;;;;;;7.31;76.80;100063.53;1605807;88;20197;-77
2021/11/07 07:46:11;;;;;;;;;;;;;;;7.31;76.76;100054.34;1603680;88;21994;-76
2021/11/07 07:48:45;;;;;;;;;;;;;;;7.42;76.10;100058.13;1604638;88;20130;-77
2021/11/07 07:51:09;;;;;;;;;;;;;;;7.50;75.67;100056.98;1605762;88;20166;-78
2021/11/07 07:53:35;;;;;;;;;;;;;;;7.43;75.57;100048.48;1603814;88;20585;-78
2021/11/07 07:56:00;;;;;;;;;;;;;;;7.63;75.20;100042.70;1606166;88;20376;-80
2021/11/07 07:58:26;;;;;;;;;;;;;;;7.63;74.76;100038.76;1605242;88;21363;-77
2021/11/07 08:00:53;;;;;;;;;;;;;;;7.76;74.36;100031.92;1612306;87;21174;-79
2021/11/07 08:03:20;;;;;;;;;;;;;;;7.66;74.11;100026.19;1615116;87;20181;-79
2021/11/07 08:05:46;;;;;;;;;;;;;;;7.76;73.95;100026.16;1612559;87;20150;-79
2021/11/07 08:08:12;;;;;;;;;;;;;;;7.77;73.61;100025.20;1615942;87;21302;-78
2021/11/07 08:10:38;;;;;;;;;;;;;;;7.82;73.41;100011.14;1615342;87;21097;-78
2021/11/07 08:13:05;;;;;;;;;;;;;;;7.70;73.15;100017.03;1611298;87;20268;-77
2021/11/07 08:15:30;;;;;;;;;;;;;;;7.87;73.22;100012.85;1614145;87;20189;-78
2021/11/07 08:17:56;;;;;;;;;;;;;;;7.87;72.94;100013.34;1620481;87;20167;-78
2021/11/07 08:20:22;;;;;;;;;;;;;;;7.87;72.95;100010.22;1617251;87;20239;-78
2021/11/07 08:22:48;;;;;;;;;;;;;;;8.00;72.45;100007.77;1616237;87;21124;-76
2021/11/07 08:25:20;;;;;;;;;;;;;;;8.14;71.89;100016.53;1618819;87;20251;-78
2021/11/07 08:27:44;;;;;;;;;;;;;;;8.12;71.81;100009.75;1617556;87;20278;-79
2021/11/07 08:30:11;;;;;;;;;;;;;;;8.10;71.42;100008.58;1613639;87;20210;-76
2021/11/07 08:32:36;;;;;;;;;;;;;;;8.34;71.12;100012.50;1594640;87;20201;-77
2021/11/07 08:35:02;;;;;;;;;;;;;;;8.45;70.70;100003.13;1617827;87;21183;-77
2021/11/07 08:37:35;;;;;;;;;;;;;;;8.42;70.49;100008.64;1610889;87;20568;-78
2021/11/07 08:39:59;;;;;;;;;;;;;;;8.42;70.28;99994.17;1615507;87;20158;-78
2021/11/07 08:42:32;;;;;;;;;;;;;;;8.62;69.93;99982.62;1613392;87;20182;-78
2021/11/07 09:01:35;;;;;;;;;;;;;;;9.04;68.12;99940.37;1616157;87;20169;-79
2021/11/07 09:04:06;;;;;;;;;;;;;;;8.94;68.12;99928.62;1615711;87;20611;-79
2021/11/07 09:06:44;;;;;;;;;;;;;;;9.03;67.82;99927.39;1615989;87;20145;-80
2021/11/07 09:09:09;;;;;;;;;;;;;;;9.00;67.86;99935.59;1617955;87;20243;-79
2021/11/07 09:11:32;;;;;;;;;;;;;;;8.76;68.17;99926.47;1615194;87;20544;-78
2021/11/07 09:13:58;;;;;;;;;;;;;;;8.81;68.07;99929.50;1613807;87;21058;-77
2021/11/07 09:16:23;;;;;;;;;;;;;;;8.90;67.99;99916.75;1610287;87;20711;-79
2021/11/07 09:18:49;;;;;;;;;;;;;;;9.03;67.69;99908.95;1616962;87;20130;-78
2021/11/07 09:21:23;;;;;;;;;;;;;;;9.14;67.29;99912.66;1609287;87;20158;-79
2021/11/07 09:23:49;;;;;;;;;;;;;;;9.25;67.04;99905.82;1610666;87;20208;-79
2021/11/07 09:26:23;;;;;;;;;;;;;;;9.31;66.62;99911.80;1616504;87;20121;-79
2021/11/07 09:34:40;;;;;;;;;;;;;;;9.33;66.30;99891.38;1616515;87;20102;-78
2021/11/07 09:36:29;;;;;;;;;;;;;;;9.45;65.76;99887.19;1601097;87;20531;-79
2021/11/07 09:44:03;;;;;;;;;;;;;;;9.43;65.46;99873.32;1611487;87;20210;-79
2021/11/07 09:49:22;;;;;;;;;;;;;;;9.69;65.19;99858.33;1613272;87;20142;-80
2021/11/07 09:51:56;;;;;;;;;;;;;;;9.69;65.23;99854.38;1614401;87;20185;-80
2021/11/07 09:54:22;;;;;;;;;;;;;;;9.71;64.97;99855.53;1616020;87;20171;-80
2021/11/07 09:56:51;;;;;;;;;;;;;;;9.67;64.44;99852.36;1616348;87;20219;-78
2021/11/07 09:59:15;;;;;;;;;;;;;;;9.49;64.56;99851.61;1610502;87;20112;-78
2021/11/07 10:01:41;;;;;;;;;;;;;;;9.72;64.19;99853.72;1605060;88;20603;-77
2021/11/07 10:04:06;;;;;;;;;;;;;;;9.68;64.38;99847.94;1604934;88;21104;-77
2021/11/07 10:06:43;;;;;;;;;;;;;;;9.58;63.97;99828.27;1611169;87;20190;-77
2021/11/07 10:09:03;;;;;;;;;;;;;;;9.67;63.81;99844.45;1599246;88;20145;-77
2021/11/07 10:11:32;;;;;;;;;;;;;;;9.76;63.80;99833.97;1607307;88;20231;-79
2021/11/07 10:14:04;;;;;;;;;;;;;;;9.83;63.67;99821.78;1605005;88;20231;-78
2021/11/07 10:16:39;;;;;;;;;;;;;;;9.78;63.64;99811.70;1604441;88;20647;-79
2021/11/07 10:19:22;;;;;;;;;;;;;;;9.88;63.28;99806.29;1605686;88;20133;-79
2021/11/07 10:21:47;;;;;;;;;;;;;;;9.94;63.04;99805.65;1601615;88;20171;-80
2021/11/07 10:24:17;;;;;;;;;;;;;;;10.15;62.85;99799.94;1601684;88;20132;-80
2021/11/07 10:26:44;;;;;;;;;;;;;;;10.10;62.94;99781.62;1606116;87;20511;-80
2021/11/07 10:29:23;;;;;;;;;;;;;;;9.88;63.11;99775.96;1603071;87;22540;-77
2021/11/07 10:32:00;;;;;;;;;;;;;;;10.09;63.17;99787.91;1602974;87;20200;-78
2021/11/07 10:45:58;;;;;;;;;;;;;;;10.02;63.45;99771.41;1609933;88;20498;-79
2021/11/07 10:53:44;;;;;;;;;;;;;;;10.27;63.07;99752.97;1608785;88;20120;-80
2021/11/07 10:56:10;;;;;;;;;;;;;;;10.28;63.15;99740.59;1603340;88;22255;-75
2021/11/07 10:58:37;;;;;;;;;;;;;;;10.28;62.66;99735.31;1608755;88;20181;-78
2021/11/07 11:01:11;;;;;;;;;;;;;;;10.30;62.38;99731.53;1587786;88;20135;-79
2021/11/07 11:03:44;;;;;;;;;;;;;;;10.31;62.20;99724.42;1579450;89;20196;-78
2021/11/07 11:06:17;;;;;;;;;;;;;;;10.19;62.10;99737.11;1580897;88;20180;-80
2021/11/07 11:08:52;;;;;;;;;;;;;;;10.21;62.12;99716.67;1574995;89;20211;-80
2021/11/07 11:19:46;;;;;;;;;;;;;;;10.33;61.27;99702.20;1579752;89;20253;-80
2021/11/07 11:28:05;;;;;;;;;;;;;;;10.46;61.09;99679.75;1573191;90;20132;-77
2021/11/07 11:33:31;;;;;;;;;;;;;;;10.47;60.61;99686.66;1578895;89;20531;-79
2021/11/07 11:38:54;;;;;;;;;;;;;;;10.71;60.27;99673.42;1582455;90;20142;-78
2021/11/07 11:41:31;;;;;;;;;;;;;;;10.49;60.01;99671.50;1576251;90;20519;-78
2021/11/07 11:43:52;;;;;;;;;;;;;;;10.52;60.52;99672.48;1579382;89;20118;-78
2021/11/07 11:46:53;;;;;;;;;;;;;;;10.47;60.38;99676.10;1578540;90;20206;-79
2021/11/07 12:00:51;;;;;;;;;;;;;;;10.96;59.62;99623.16;1581258;90;20122;-75
2021/11/07 12:03:57;;;;;;;;;;;;;;;10.88;59.72;99635.08;1570107;89;20469;-76
2021/11/07 12:06:35;;;;;;;;;;;;;;;10.94;59.78;99637.86;1574266;88;20240;-77
2021/11/07 12:10:05;;;;;;;;;;;;;;;10.80;60.04;99617.92;1575754;89;20176;-78
2021/11/07 12:11:56;;;;;;;;;;;;;;;10.72;59.93;99614.34;1562619;90;20394;-78
2021/11/07 12:14:20;;;;;;;;;;;;;;;10.58;60.46;99621.14;1577199;89;20101;-79
2021/11/07 12:16:53;;;;;;;;;;;;;;;10.68;60.39;99613.02;1570391;89;20135;-79
2021/11/07 12:19:21;;;;;;;;;;;;;;;10.84;59.87;99610.81;1573381;90;20123;-77
2021/11/07 12:21:57;;;;;;;;;;;;;;;10.85;59.86;99614.30;1563179;90;20218;-78
2021/11/07 12:24:26;;;;;;;;;;;;;;;10.84;59.69;99606.03;1572973;89;20910;-77
2021/11/07 12:26:52;;;;;;;;;;;;;;;10.69;60.16;99604.11;1571031;90;20203;-77
2021/11/07 12:29:40;;;;;;;;;;;;;;;10.79;60.25;99598.63;1589593;88;21177;-77
2021/11/07 12:32:07;;;;;;;;;;;;;;;10.65;60.59;99608.08;1579731;88;20147;-77
2021/11/07 12:34:59;;;;;;;;;;;;;;;10.81;60.45;99599.77;1593770;88;20176;-78
2021/11/07 12:41:10;;;;;;;;;;;;;;;10.94;60.45;99582.89;1600848;88;20105;-78
2021/11/07 12:43:03;;;;;;;;;;;;;;;10.92;60.48;99579.57;1576831;88;20184;-78
2021/11/07 12:45:34;;;;;;;;;;;;;;;10.95;60.29;99581.87;1594621;88;20219;-79
2021/11/07 12:48:04;;;;;;;;;;;;;;;10.92;60.49;99575.61;1597000;88;20258;-81
2021/11/07 12:50:26;;;;;;;;;;;;;;;10.78;60.66;99581.96;1606537;87;20400;-82
2021/11/07 12:52:53;;;;;;;;;;;;;;;10.87;60.74;99571.35;1594570;89;20195;-79
2021/11/07 12:55:29;;;;;;;;;;;;;;;10.94;60.61;99567.03;1593054;88;21961;-78
2021/11/07 12:57:54;;;;;;;;;;;;;;;10.90;60.53;99576.29;1594799;88;20239;-78
2021/11/07 13:00:20;;;;;;;;;;;;;;;10.71;60.83;99570.42;1598353;86;20218;-81
2021/11/07 13:02:46;;;;;;;;;;;;;;;10.84;60.82;99576.98;1630457;86;20152;-78
2021/11/07 13:05:18;;;;;;;;;;;;;;;10.89;60.70;99579.92;1630175;85;20182;-79
2021/11/07 13:07:54;;;;;;;;;;;;;;;10.88;60.68;99565.90;1628496;86;20192;-76
2021/11/07 13:10:23;;;;;;;;;;;;;;;10.74;60.96;99563.48;1626945;86;20228;-78
2021/11/07 13:12:47;;;;;;;;;;;;;;;10.90;60.75;99557.80;1626401;86;20147;-77
2021/11/07 13:29:47;;;;;;;;;;;;;;;;;;;;;
2021/11/07 13:32:35;;;;;;;;;;;;;;;10.43;61.68;99569.22;1615350;86;20397;-78
2021/11/07 13:34:21;;;;;;;;;;;;;;;10.46;61.87;99567.56;1620621;86;20432;-77
2021/11/07 13:36:45;;;;;;;;;;;;;;;10.40;61.61;99560.63;1622511;86;20160;-78
2021/11/07 13:39:13;;;;;;;;;;;;;;;10.45;61.70;99572.50;1622296;86;20190;-78
2021/11/07 13:41:40;;;;;;;;;;;;;;;10.49;61.49;99546.92;1621469;86;20219;-77
2021/11/07 13:44:14;;;;;;;;;;;;;;;10.45;61.56;99560.63;1623313;86;20277;-78
2021/11/07 13:46:36;;;;;;;;;;;;;;;10.39;61.85;99572.20;1627824;86;20178;-79
2021/11/07 13:49:04;;;;;;;;;;;;;;;10.33;62.10;99558.36;1626699;86;20206;-77
2021/11/07 13:51:30;;;;;;;;;;;;;;;10.23;62.45;99564.28;1628125;86;20196;-78
2021/11/07 13:54:01;;;;;;;;;;;;;;;10.40;62.22;99555.35;1627302;86;20290;-77
2021/11/07 13:56:27;;;;;;;;;;;;;;;10.35;61.88;99544.48;1628816;86;20143;-77
2021/11/07 13:58:56;;;;;;;;;;;;;;;10.20;62.30;99556.70;1626409;86;21893;-77
2021/11/07 14:01:22;;;;;;;;;;;;;;;10.21;62.58;99545.16;1628659;86;20128;-77
2021/11/07 14:03:57;;;;;;;;;;;;;;;10.20;62.52;99564.61;1634867;86;20237;-77
2021/11/07 14:06:35;;;;;;;;;;;;;;;10.22;62.67;99554.70;1635805;86;20687;-80
2021/11/07 14:09:02;;;;;;;;;;;;;;;10.32;62.49;99547.44;1629786;86;20993;-79
2021/11/07 14:11:28;;;;;;;;;;;;;;;10.21;62.77;99542.52;1632573;86;20181;-79
2021/11/07 14:13:57;;;;;;;;;;;;;;;10.19;62.84;99549.29;1629738;86;20482;-77
2021/11/07 14:16:36;;;;;;;;;;;;;;;10.18;63.12;99542.86;1632314;86;20207;-78
2021/11/07 14:19:06;;;;;;;;;;;;;;;10.17;62.94;99533.29;1632545;85;20176;-78
2021/11/07 14:21:31;;;;;;;;;;;;;;;10.08;63.16;99529.02;1633642;86;20244;-81
2021/11/07 14:26:37;;;;;;;;;;;;;;;10.04;63.63;99550.46;1630702;86;20324;-79
2021/11/07 14:29:15;;;;;;;;;;;;;;;10.00;63.91;99549.14;1625433;86;20662;-79
2021/11/07 14:31:51;;;;;;;;;;;;;;;9.90;64.33;99593.34;1638558;86;20127;-78
2021/11/07 14:34:14;;;;;;;;;;;;;;;9.98;64.42;99549.81;1612565;86;20548;-78
2021/11/07 14:36:46;;;;;;;;;;;;;;;10.09;64.35;99539.91;1632668;86;21155;-78
2021/11/07 14:39:23;;;;;;;;;;;;;;;9.92;65.10;99543.07;1613887;86;21061;-79
2021/11/07 14:41:55;;;;;;;;;;;;;;;9.78;65.71;99524.28;1638799;86;20177;-78
2021/11/07 14:44:27;;;;;;;;;;;;;;;9.84;66.01;99549.17;1632568;86;20575;-79
2021/11/07 14:47:12;;;;;;;;;;;;;;;9.69;67.19;99549.84;1628842;86;20200;-80
2021/11/07 14:50:05;;;;;;;;;;;;;;;9.56;68.05;99557.41;1636239;86;20183;-79
2021/11/07 14:52:36;;;;;;;;;;;;;;;9.70;67.96;99551.98;1629613;86;20544;-76
2021/11/07 14:55:26;;;;;;;;;;;;;;;9.62;68.76;99554.13;1633588;86;20142;-79
2021/11/07 14:58:13;;;;;;;;;;;;;;;9.48;70.07;99546.88;1642778;86;20773;-81
2021/11/07 15:00:47;;;;;;;;;;;;;;;9.40;71.53;99552.97;1629898;86;20198;-79
2021/11/07 15:03:13;;;;;;;;;;;;;;;9.45;72.36;99549.84;1632127;86;20130;-79
2021/11/07 15:05:37;;;;;;;;;;;;;;;9.37;73.44;99553.77;1621574;86;20135;-79